Moya — SVA5446 — position and weather

sailwx.info

Track history (hours):
 
Tides and Currents Weather Stations Pressure Air Temp Water Temp Dewpoint Dewpoint Depression Visibility Wind Speed Wind Dir Waves Ship Positions

Moya

Last reported at 2018-Jun-17 13:35 UTC. Time now 2018-Jun-22 17:02 UTC.
Position N 37°49' E 023°45'.

Type: Sailing vessel. MMSI: 239823300.

Date/timePositionNaut miles runAvg speedWind from/ knotsBaromVisibWave heightAir tempDewpointWater temp
2018-Jun-17 13:35N 37°49' E 023°45'1 9.0
2018-Jun-17 13:31N 37°49' E 023°44'5 9.0
2018-Jun-17 13:00N 37°53' E 023°42'1 2.5
2018-Jun-17 12:30N 37°55' E 023°42'0 0.0
2018-Jun-17 12:00N 37°55' E 023°42'0 0.0
2018-Jun-17 11:30N 37°55' E 023°42'0 0.0
2018-Jun-17 11:00N 37°55' E 023°42'0 0.0
2018-Jun-17 10:30N 37°55' E 023°42'0 0.0
2018-Jun-17 10:00N 37°55' E 023°42'0 0.0
2018-Jun-17 09:30N 37°55' E 023°42'0 0.0
2018-Jun-17 09:00N 37°55' E 023°42'0 0.0
2018-Jun-17 08:30N 37°55' E 023°42'0 0.0
2018-Jun-17 08:00N 37°55' E 023°42'0 0.0
2018-Jun-17 07:30N 37°55' E 023°42'0 0.0
2018-Jun-17 07:00N 37°55' E 023°42'0 0.0
2018-Jun-17 06:27N 37°55' E 023°42'0 0.0
2018-Jun-17 06:00N 37°55' E 023°42'0 0.0
2018-Jun-17 05:30N 37°55' E 023°42'0 0.0
2018-Jun-17 05:00N 37°55' E 023°42'0 0.0
2018-Jun-17 04:30N 37°55' E 023°42'0 0.0
2018-Jun-17 04:00N 37°55' E 023°42'0 0.0
2018-Jun-17 03:30N 37°55' E 023°42'0 0.0
2018-Jun-17 03:00N 37°55' E 023°42'0 0.0
2018-Jun-17 02:30N 37°55' E 023°42'0 0.0
2018-Jun-17 02:00N 37°55' E 023°42'0 0.0
2018-Jun-17 01:30N 37°55' E 023°42'0 0.0
2018-Jun-17 01:00N 37°55' E 023°42'0 0.0
2018-Jun-17 00:30N 37°55' E 023°42'0 0.0
2018-Jun-17 00:00N 37°55' E 023°42'0 0.0
2018-Jun-16 23:30N 37°55' E 023°42'0 0.0
2018-Jun-16 23:00N 37°55' E 023°42'0 0.0
2018-Jun-16 22:30N 37°55' E 023°42'0 0.0
2018-Jun-16 22:00N 37°55' E 023°42'0 0.0
2018-Jun-16 21:30N 37°55' E 023°42'0 0.0
2018-Jun-16 21:00N 37°55' E 023°42'0 0.0
2018-Jun-16 20:27N 37°55' E 023°42'0 0.0
2018-Jun-16 20:00N 37°55' E 023°42'0 0.0
2018-Jun-16 19:30N 37°55' E 023°42'0 0.0
2018-Jun-16 19:00N 37°55' E 023°42'0 0.0
2018-Jun-16 18:30N 37°55' E 023°42'0 0.0
2018-Jun-16 18:00N 37°55' E 023°42'0 0.0
2018-Jun-16 17:30N 37°55' E 023°42'0 0.0
2018-Jun-16 17:00N 37°55' E 023°42'0 0.0
2018-Jun-16 16:30N 37°55' E 023°42'0 0.0
2018-Jun-16 16:00N 37°55' E 023°42'0 0.0
2018-Jun-16 15:27N 37°55' E 023°42'0 0.0
2018-Jun-16 15:00N 37°55' E 023°42'0 0.0
2018-Jun-16 14:30N 37°55' E 023°42'0 0.0
2018-Jun-16 14:00N 37°55' E 023°42'0 0.0
2018-Jun-16 13:30N 37°55' E 023°42'0 0.0
2018-Jun-16 13:00N 37°55' E 023°42'0 0.0
2018-Jun-16 12:30N 37°55' E 023°42'0 0.0
2018-Jun-16 12:00N 37°55' E 023°42'0 0.0
2018-Jun-16 11:30N 37°55' E 023°42'0 0.0
2018-Jun-16 11:00N 37°55' E 023°42'0 0.0
2018-Jun-16 10:30N 37°55' E 023°42'0 0.0
2018-Jun-16 09:57N 37°55' E 023°42'0 0.0
2018-Jun-16 09:30N 37°55' E 023°42'0 0.0
2018-Jun-16 09:00N 37°55' E 023°42'0 0.4
2018-Jun-16 08:30N 37°55' E 023°42'5 9.1
2018-Jun-16 08:00N 37°51' E 023°39'5 9.1
2018-Jun-16 07:30N 37°47' E 023°36'5 8.9
2018-Jun-16 06:59N 37°43' E 023°34'6 8.7
2018-Jun-16 06:17N 37°37' E 023°30'12 0.7
2018-Jun-15 12:43N 37°26' E 023°33'  
2018-Jun-12 09:21N 37°02' E 025°05'13 0.7
2018-Jun-11 13:31N 37°14' E 025°11'0 8.9
2018-Jun-11 13:30N 37°15' E 025°11'3 6.6
2018-Jun-11 12:58N 37°18' E 025°12'2 5.3
2018-Jun-11 12:30N 37°20' E 025°14'3 5.6
2018-Jun-11 12:00N 37°23' E 025°15'0 0.0
2018-Jun-11 11:30N 37°23' E 025°15'0 0.0
2018-Jun-11 10:57N 37°23' E 025°15'0 0.0
2018-Jun-11 10:30N 37°23' E 025°15'0 0.0
2018-Jun-11 10:00N 37°23' E 025°15'0 0.0
2018-Jun-11 09:15N 37°23' E 025°15'0 0.0
2018-Jun-11 09:00N 37°23' E 025°15'0 0.0
2018-Jun-11 08:24N 37°23' E 025°15'2 4.8
2018-Jun-11 08:00N 37°24' E 025°16'4 8.4
2018-Jun-11 07:29N 37°28' E 025°19'1 0.2
2018-Jun-11 03:45N 37°28' E 025°20'0 0.0
2018-Jun-11 03:27N 37°28' E 025°20'0 0.0
2018-Jun-10 22:27N 37°28' E 025°20'0 0.0
2018-Jun-10 20:51N 37°28' E 025°20'0 0.0
2018-Jun-10 20:27N 37°28' E 025°20'0 0.0
2018-Jun-10 19:57N 37°28' E 025°20'0 0.0
2018-Jun-10 19:27N 37°28' E 025°20'0 0.0
2018-Jun-10 18:57N 37°28' E 025°20'0 0.0
2018-Jun-10 18:18N 37°28' E 025°20'0 0.0
2018-Jun-10 17:12N 37°28' E 025°20'0 0.0
2018-Jun-10 16:45N 37°28' E 025°20'0 0.0
2018-Jun-10 15:13N 37°28' E 025°20'0 0.0
2018-Jun-10 14:51N 37°28' E 025°20'0 0.3
2018-Jun-10 14:30N 37°28' E 025°20'9 8.5
2018-Jun-10 13:29N 37°29' E 025°09'15 3.8
2018-Jun-10 09:37N 37°31' E 024°50'1 8.4
2018-Jun-10 09:28N 37°32' E 024°49'52 2.3
2018-Jun-09 10:40N 37°47' E 023°47'2 8.9
2018-Jun-09 10:30N 37°48' E 023°45'4 8.9
2018-Jun-09 10:00N 37°52' E 023°43'2 4.8
2018-Jun-09 09:30N 37°55' E 023°42'0 0.0
2018-Jun-09 09:00N 37°55' E 023°42'  
Track history (hours):
 
Tides and Currents Weather Stations Pressure Air Temp Water Temp Dewpoint Dewpoint Depression Visibility Wind Speed Wind Dir Waves Ship Positions

Moya

Last reported at 2018-Jun-17 13:35 UTC. Time now 2018-Jun-22 17:02 UTC.
Position N 37°49' E 023°45'.

Type: Sailing vessel. MMSI: 239823300.

Date/timePositionNaut miles runAvg speedWind from/ knotsBaromVisibWave heightAir tempDewpointWater temp
2018-Jun-17 13:35N 37°49' E 023°45'1 9.0
2018-Jun-17 13:31N 37°49' E 023°44'5 9.0
2018-Jun-17 13:00N 37°53' E 023°42'1 2.5
2018-Jun-17 12:30N 37°55' E 023°42'0 0.0
2018-Jun-17 12:00N 37°55' E 023°42'0 0.0
2018-Jun-17 11:30N 37°55' E 023°42'0 0.0
2018-Jun-17 11:00N 37°55' E 023°42'0 0.0
2018-Jun-17 10:30N 37°55' E 023°42'0 0.0
2018-Jun-17 10:00N 37°55' E 023°42'0 0.0
2018-Jun-17 09:30N 37°55' E 023°42'0 0.0
2018-Jun-17 09:00N 37°55' E 023°42'0 0.0
2018-Jun-17 08:30N 37°55' E 023°42'0 0.0
2018-Jun-17 08:00N 37°55' E 023°42'0 0.0
2018-Jun-17 07:30N 37°55' E 023°42'0 0.0
2018-Jun-17 07:00N 37°55' E 023°42'0 0.0
2018-Jun-17 06:27N 37°55' E 023°42'0 0.0
2018-Jun-17 06:00N 37°55' E 023°42'0 0.0
2018-Jun-17 05:30N 37°55' E 023°42'0 0.0
2018-Jun-17 05:00N 37°55' E 023°42'0 0.0
2018-Jun-17 04:30N 37°55' E 023°42'0 0.0
2018-Jun-17 04:00N 37°55' E 023°42'0 0.0
2018-Jun-17 03:30N 37°55' E 023°42'0 0.0
2018-Jun-17 03:00N 37°55' E 023°42'0 0.0
2018-Jun-17 02:30N 37°55' E 023°42'0 0.0
2018-Jun-17 02:00N 37°55' E 023°42'0 0.0
2018-Jun-17 01:30N 37°55' E 023°42'0 0.0
2018-Jun-17 01:00N 37°55' E 023°42'0 0.0
2018-Jun-17 00:30N 37°55' E 023°42'0 0.0
2018-Jun-17 00:00N 37°55' E 023°42'0 0.0
2018-Jun-16 23:30N 37°55' E 023°42'0 0.0
2018-Jun-16 23:00N 37°55' E 023°42'0 0.0
2018-Jun-16 22:30N 37°55' E 023°42'0 0.0
2018-Jun-16 22:00N 37°55' E 023°42'0 0.0
2018-Jun-16 21:30N 37°55' E 023°42'0 0.0
2018-Jun-16 21:00N 37°55' E 023°42'0 0.0
2018-Jun-16 20:27N 37°55' E 023°42'0 0.0
2018-Jun-16 20:00N 37°55' E 023°42'0 0.0
2018-Jun-16 19:30N 37°55' E 023°42'0 0.0
2018-Jun-16 19:00N 37°55' E 023°42'0 0.0
2018-Jun-16 18:30N 37°55' E 023°42'0 0.0
2018-Jun-16 18:00N 37°55' E 023°42'0 0.0
2018-Jun-16 17:30N 37°55' E 023°42'0 0.0
2018-Jun-16 17:00N 37°55' E 023°42'0 0.0
2018-Jun-16 16:30N 37°55' E 023°42'0 0.0
2018-Jun-16 16:00N 37°55' E 023°42'0 0.0
2018-Jun-16 15:27N 37°55' E 023°42'0 0.0
2018-Jun-16 15:00N 37°55' E 023°42'0 0.0
2018-Jun-16 14:30N 37°55' E 023°42'0 0.0
2018-Jun-16 14:00N 37°55' E 023°42'0 0.0
2018-Jun-16 13:30N 37°55' E 023°42'0 0.0
2018-Jun-16 13:00N 37°55' E 023°42'0 0.0
2018-Jun-16 12:30N 37°55' E 023°42'0 0.0
2018-Jun-16 12:00N 37°55' E 023°42'0 0.0
2018-Jun-16 11:30N 37°55' E 023°42'0 0.0
2018-Jun-16 11:00N 37°55' E 023°42'0 0.0
2018-Jun-16 10:30N 37°55' E 023°42'0 0.0
2018-Jun-16 09:57N 37°55' E 023°42'0 0.0
2018-Jun-16 09:30N 37°55' E 023°42'0 0.0
2018-Jun-16 09:00N 37°55' E 023°42'0 0.4
2018-Jun-16 08:30N 37°55' E 023°42'5 9.1
2018-Jun-16 08:00N 37°51' E 023°39'5 9.1
2018-Jun-16 07:30N 37°47' E 023°36'5 8.9
2018-Jun-16 06:59N 37°43' E 023°34'6 8.7
2018-Jun-16 06:17N 37°37' E 023°30'12 0.7
2018-Jun-15 12:43N 37°26' E 023°33'  
2018-Jun-12 09:21N 37°02' E 025°05'13 0.7
2018-Jun-11 13:31N 37°14' E 025°11'0 8.9
2018-Jun-11 13:30N 37°15' E 025°11'3 6.6
2018-Jun-11 12:58N 37°18' E 025°12'2 5.3
2018-Jun-11 12:30N 37°20' E 025°14'3 5.6
2018-Jun-11 12:00N 37°23' E 025°15'0 0.0
2018-Jun-11 11:30N 37°23' E 025°15'0 0.0
2018-Jun-11 10:57N 37°23' E 025°15'0 0.0
2018-Jun-11 10:30N 37°23' E 025°15'0 0.0
2018-Jun-11 10:00N 37°23' E 025°15'0 0.0
2018-Jun-11 09:15N 37°23' E 025°15'0 0.0
2018-Jun-11 09:00N 37°23' E 025°15'0 0.0
2018-Jun-11 08:24N 37°23' E 025°15'2 4.8
2018-Jun-11 08:00N 37°24' E 025°16'4 8.4
2018-Jun-11 07:29N 37°28' E 025°19'1 0.2
2018-Jun-11 03:45N 37°28' E 025°20'0 0.0
2018-Jun-11 03:27N 37°28' E 025°20'0 0.0
2018-Jun-10 22:27N 37°28' E 025°20'0 0.0
2018-Jun-10 20:51N 37°28' E 025°20'0 0.0
2018-Jun-10 20:27N 37°28' E 025°20'0 0.0
2018-Jun-10 19:57N 37°28' E 025°20'0 0.0
2018-Jun-10 19:27N 37°28' E 025°20'0 0.0
2018-Jun-10 18:57N 37°28' E 025°20'0 0.0
2018-Jun-10 18:18N 37°28' E 025°20'0 0.0
2018-Jun-10 17:12N 37°28' E 025°20'0 0.0
2018-Jun-10 16:45N 37°28' E 025°20'0 0.0
2018-Jun-10 15:13N 37°28' E 025°20'0 0.0
2018-Jun-10 14:51N 37°28' E 025°20'0 0.3
2018-Jun-10 14:30N 37°28' E 025°20'9 8.5
2018-Jun-10 13:29N 37°29' E 025°09'15 3.8
2018-Jun-10 09:37N 37°31' E 024°50'1 8.4
2018-Jun-10 09:28N 37°32' E 024°49'52 2.3
2018-Jun-09 10:40N 37°47' E 023°47'2 8.9
2018-Jun-09 10:30N 37°48' E 023°45'4 8.9
2018-Jun-09 10:00N 37°52' E 023°43'2 4.8
2018-Jun-09 09:30N 37°55' E 023°42'0 0.0
2018-Jun-09 09:00N 37°55' E 023°42'  

Dump ship's entire track history